createdAt,value
2022-11-16T00:01:59.740Z,99122.09
2022-11-16T00:04:26.096Z,99192.38
2022-11-16T00:06:52.476Z,99196.00
2022-11-16T00:09:26.877Z,99220.22
2022-11-16T00:11:56.022Z,99167.13
2022-11-16T00:14:24.190Z,99062.69
2022-11-16T00:16:50.572Z,99198.06
2022-11-16T00:19:17.122Z,99196.88
2022-11-16T00:21:43.767Z,99204.91
2022-11-16T00:24:18.065Z,99210.06
2022-11-16T00:26:44.724Z,99210.31
2022-11-16T00:29:25.417Z,99206.88
2022-11-16T00:31:53.646Z,99156.22
2022-11-16T00:34:21.285Z,99178.22
2022-11-16T00:36:47.713Z,99201.41
2022-11-16T00:39:15.390Z,99109.03
2022-11-16T00:41:42.597Z,99133.31
2022-11-16T00:44:10.042Z,99208.19
2022-11-16T00:46:36.558Z,99191.59
2022-11-16T00:49:03.501Z,99221.00
2022-11-16T00:51:29.947Z,99157.84
2022-11-16T00:53:56.332Z,99200.38
2022-11-16T00:56:23.465Z,99181.09
2022-11-16T00:58:50.432Z,99224.97
2022-11-16T01:01:16.907Z,99096.97
2022-11-16T01:03:43.502Z,99217.00
2022-11-16T01:06:14.217Z,99223.94
2022-11-16T01:08:41.953Z,99123.94
2022-11-16T01:11:27.526Z,99221.75
2022-11-16T01:13:55.666Z,99197.78
2022-11-16T01:16:23.355Z,99209.44
2022-11-16T01:18:52.269Z,99188.38
2022-11-16T01:21:19.688Z,99052.94
2022-11-16T01:23:46.370Z,99165.31
2022-11-16T01:26:12.936Z,99022.47
2022-11-16T01:28:42.139Z,99095.66
2022-11-16T01:31:09.647Z,99089.09
2022-11-16T01:33:36.712Z,99198.22
2022-11-16T01:36:03.503Z,99164.97
2022-11-16T01:38:30.276Z,99013.69
2022-11-16T01:40:58.962Z,99069.56
2022-11-16T01:43:26.977Z,99185.47
2022-11-16T01:45:53.506Z,99108.53
2022-11-16T01:48:27.598Z,99185.66
2022-11-16T01:50:55.977Z,99129.06
2022-11-16T01:53:23.264Z,99154.41
2022-11-16T01:55:49.934Z,99121.28
2022-11-16T01:58:23.026Z,99032.28
2022-11-16T02:00:54.850Z,99166.00
2022-11-16T02:03:21.688Z,99100.13
2022-11-16T02:06:09.399Z,99178.81
2022-11-16T02:09:06.692Z,99178.06
2022-11-16T02:12:07.738Z,99046.06
2022-11-16T02:14:52.111Z,99152.47
2022-11-16T02:17:46.314Z,99030.66
2022-11-16T02:20:38.505Z,99174.66
2022-11-16T02:23:36.377Z,99163.22
2022-11-16T02:26:05.836Z,99167.53
2022-11-16T02:28:51.043Z,99170.34
2022-11-16T02:31:27.299Z,99151.78
2022-11-16T02:33:57.204Z,99080.28
2022-11-16T02:36:24.999Z,99129.09
2022-11-16T02:38:57.998Z,99098.94
2022-11-16T02:41:28.371Z,99152.97
2022-11-16T02:44:10.132Z,99070.09
2022-11-16T02:46:39.267Z,99011.31
2022-11-16T02:49:13.710Z,99038.13
2022-11-16T02:51:42.808Z,99086.06
2022-11-16T02:54:18.137Z,99050.06
2022-11-16T02:57:02.844Z,99096.56
2022-11-16T02:59:31.512Z,99158.75
2022-11-16T03:02:13.888Z,99050.38
2022-11-16T03:04:50.500Z,99030.31
2022-11-16T03:07:23.968Z,99170.28
2022-11-16T03:09:51.867Z,99067.22
2022-11-16T03:12:22.644Z,99104.25
2022-11-16T03:15:11.719Z,99120.34
2022-11-16T03:17:42.430Z,99075.34
2022-11-16T03:20:16.328Z,99165.66
2022-11-16T03:22:46.110Z,99040.44
2022-11-16T03:25:16.824Z,99066.53
2022-11-16T03:28:09.716Z,99168.91
2022-11-16T03:30:41.154Z,99093.13
2022-11-16T03:33:16.671Z,99091.44
2022-11-16T03:35:52.246Z,99165.19
2022-11-16T03:38:21.251Z,99134.84
2022-11-16T03:40:50.071Z,99041.66
2022-11-16T03:43:19.123Z,99002.47
2022-11-16T03:45:46.842Z,99093.84
2022-11-16T03:48:15.826Z,99081.81
2022-11-16T03:50:43.044Z,99166.03
2022-11-16T03:53:09.546Z,99140.69
2022-11-16T03:55:35.931Z,99143.25
2022-11-16T03:58:02.342Z,99103.59
2022-11-16T04:00:29.095Z,99156.88
2022-11-16T04:02:55.807Z,99190.34
2022-11-16T04:05:41.915Z,99104.66
2022-11-16T04:08:35.280Z,99156.44
2022-11-16T04:11:21.572Z,99146.53
2022-11-16T04:14:09.200Z,99140.56
2022-11-16T04:16:54.235Z,99083.09
2022-11-16T04:19:39.216Z,99205.13
2022-11-16T04:22:31.946Z,99158.63
2022-11-16T04:25:27.534Z,99177.53
2022-11-16T04:28:16.391Z,99195.22
2022-11-16T04:31:02.500Z,99212.19
2022-11-16T04:33:48.665Z,99164.66
2022-11-16T04:36:36.515Z,99192.75
2022-11-16T04:39:03.939Z,99210.81
2022-11-16T04:41:49.987Z,99140.19
2022-11-16T04:44:16.533Z,99171.88
2022-11-16T04:47:02.565Z,99178.34
2022-11-16T04:49:28.934Z,99206.50
2022-11-16T04:51:55.545Z,99114.53
2022-11-16T04:54:22.017Z,99204.63
2022-11-16T04:56:48.521Z,99207.88
2022-11-16T04:59:16.207Z,99186.00
2022-11-16T05:02:01.565Z,99164.47
2022-11-16T05:04:28.961Z,99137.97
2022-11-16T05:06:58.301Z,99240.22
2022-11-16T05:09:25.385Z,99022.47
2022-11-16T05:11:52.063Z,99141.38
2022-11-16T05:14:18.444Z,99139.66
2022-11-16T05:16:45.110Z,99249.19
2022-11-16T05:19:30.310Z,99162.16
2022-11-16T05:21:56.903Z,99229.50
2022-11-16T05:24:35.416Z,99253.09
2022-11-16T05:27:10.381Z,99241.72
2022-11-16T05:29:37.265Z,99260.81
2022-11-16T05:32:04.660Z,99231.22
2022-11-16T05:34:31.205Z,99184.44
2022-11-16T05:36:59.569Z,99184.59
2022-11-16T05:39:26.364Z,99234.75
2022-11-16T05:41:53.053Z,99264.09
2022-11-16T05:44:19.652Z,99177.56
2022-11-16T05:46:46.617Z,99147.56
2022-11-16T05:49:14.518Z,99149.00
2022-11-16T05:51:43.234Z,99118.41
2022-11-16T05:54:13.208Z,99266.16
2022-11-16T05:56:39.855Z,99135.16
2022-11-16T05:59:06.601Z,99196.22
2022-11-16T06:01:33.047Z,99279.22
2022-11-16T06:04:01.121Z,99206.63
2022-11-16T06:06:28.652Z,99254.91
2022-11-16T06:08:55.061Z,99243.34
2022-11-16T06:11:21.928Z,99202.00
2022-11-16T06:13:48.341Z,99237.72
2022-11-16T06:16:14.668Z,99218.22
2022-11-16T06:18:44.352Z,99194.78
2022-11-16T06:21:12.251Z,99302.06
2022-11-16T06:23:38.844Z,99290.09
2022-11-16T06:26:06.126Z,99284.06
2022-11-16T06:28:33.480Z,99240.66
2022-11-16T06:31:00.033Z,99253.38
2022-11-16T06:33:29.653Z,99235.06
2022-11-16T06:35:59.784Z,99276.50
2022-11-16T06:38:27.425Z,99214.59
2022-11-16T06:40:56.104Z,99330.81
2022-11-16T06:43:23.535Z,99339.16
2022-11-16T06:45:53.082Z,99341.59
2022-11-16T06:48:20.477Z,99321.69
2022-11-16T06:50:51.839Z,99303.00
2022-11-16T06:53:19.210Z,99287.88
2022-11-16T06:55:45.588Z,99317.78
2022-11-16T06:58:12.275Z,99328.06
2022-11-16T07:00:38.723Z,99298.16
2022-11-16T07:03:05.245Z,99319.94
2022-11-16T07:05:32.143Z,99346.34
2022-11-16T07:07:59.018Z,99353.84
2022-11-16T07:10:26.154Z,99328.66
2022-11-16T07:12:52.642Z,99323.84
2022-11-16T07:15:19.713Z,99315.94
2022-11-16T07:17:46.059Z,99347.22
2022-11-16T07:20:12.597Z,99335.03
2022-11-16T07:22:38.925Z,99344.91
2022-11-16T07:25:05.936Z,99324.38
2022-11-16T07:27:32.250Z,99343.38
2022-11-16T07:29:58.573Z,99332.34
2022-11-16T07:32:24.873Z,99370.84
2022-11-16T07:34:51.182Z,99352.16
2022-11-16T07:37:17.572Z,99353.81
2022-11-16T07:39:43.944Z,99340.13
2022-11-16T07:42:11.763Z,99372.00
2022-11-16T07:44:39.033Z,99364.16
2022-11-16T07:47:06.233Z,99377.75
2022-11-16T07:49:32.705Z,99375.25
2022-11-16T07:51:59.110Z,99375.41
2022-11-16T07:54:25.489Z,99359.09
2022-11-16T07:56:52.127Z,99334.19
2022-11-16T07:59:18.440Z,99393.41
2022-11-16T08:01:47.164Z,99379.22
2022-11-16T08:04:15.299Z,99394.56
2022-11-16T08:06:41.617Z,99391.75
2022-11-16T08:09:09.304Z,99376.38
2022-11-16T08:11:35.637Z,99359.94
2022-11-16T08:14:02.189Z,99338.59
2022-11-16T08:16:28.648Z,99380.13
2022-11-16T08:18:55.158Z,99373.66
2022-11-16T08:21:21.516Z,99347.88
2022-11-16T08:23:47.872Z,99372.75
2022-11-16T08:26:19.295Z,99393.06
2022-11-16T08:28:47.375Z,99357.16
2022-11-16T08:31:20.109Z,99385.09
2022-11-16T08:33:47.845Z,99400.44
2022-11-16T08:36:17.418Z,99411.19
2022-11-16T08:38:45.142Z,99390.97
2022-11-16T08:41:11.753Z,99413.16
2022-11-16T08:43:40.260Z,99425.06
2022-11-16T08:46:07.994Z,99407.91
2022-11-16T08:48:35.787Z,99412.88
2022-11-16T08:51:17.586Z,99435.50
2022-11-16T08:53:45.504Z,99431.88
2022-11-16T08:56:13.561Z,99402.47
2022-11-16T08:58:43.405Z,99418.66
2022-11-16T09:01:18.032Z,99418.84
2022-11-16T09:03:45.079Z,99436.44
2022-11-16T09:06:12.565Z,99417.91
2022-11-16T09:08:41.099Z,99445.25
2022-11-16T09:11:11.091Z,99416.97
2022-11-16T09:13:37.765Z,99448.66
2022-11-16T09:16:04.992Z,99402.25
2022-11-16T09:18:33.649Z,99429.63
2022-11-16T09:21:00.317Z,99431.13
2022-11-16T09:23:26.768Z,99404.56
2022-11-16T09:25:53.545Z,99449.56
2022-11-16T09:28:21.912Z,99454.75
2022-11-16T09:30:50.768Z,99454.84
2022-11-16T09:33:17.444Z,99432.97
2022-11-16T09:35:44.067Z,99423.22
2022-11-16T09:38:11.882Z,99413.13
2022-11-16T09:40:45.930Z,99454.13
2022-11-16T09:43:27.790Z,99438.59
2022-11-16T09:46:31.943Z,99462.50
2022-11-16T09:49:02.704Z,99433.16
2022-11-16T09:51:33.696Z,99393.97
2022-11-16T09:54:18.992Z,99444.59
2022-11-16T09:56:49.033Z,99402.53
2022-11-16T09:59:23.228Z,99457.28
2022-11-16T10:01:58.026Z,99434.91
2022-11-16T10:04:39.324Z,99419.56
2022-11-16T10:07:14.209Z,99455.63
2022-11-16T10:09:40.779Z,99418.84
2022-11-16T10:12:30.348Z,99456.88
2022-11-16T10:15:13.822Z,99417.16
2022-11-16T10:17:59.842Z,99458.31
2022-11-16T10:20:49.705Z,99454.53
2022-11-16T10:23:22.104Z,99466.38
2022-11-16T10:26:10.532Z,99460.41
2022-11-16T10:28:55.592Z,99464.41
2022-11-16T10:31:55.486Z,99434.00
2022-11-16T10:34:26.008Z,99420.41
2022-11-16T10:36:56.583Z,99428.66
2022-11-16T10:39:25.005Z,99375.78
2022-11-16T10:41:51.674Z,99446.63
2022-11-16T10:44:30.079Z,99454.19
2022-11-16T10:47:19.602Z,99419.53
2022-11-16T10:49:53.903Z,99437.34
2022-11-16T10:52:20.517Z,99408.34
2022-11-16T10:54:46.890Z,99423.75
2022-11-16T10:57:17.201Z,99414.00
2022-11-16T10:59:49.864Z,99413.34
2022-11-16T11:02:25.051Z,99426.50
2022-11-16T11:05:17.745Z,99420.94
2022-11-16T11:08:06.099Z,99407.56
2022-11-16T11:10:39.555Z,99355.91
2022-11-16T11:13:11.858Z,99409.38
2022-11-16T11:15:39.997Z,99354.03
2022-11-16T11:18:19.112Z,99358.28
2022-11-16T11:20:50.276Z,99385.97
2022-11-16T11:23:20.337Z,99380.81
2022-11-16T11:25:58.656Z,99379.13
2022-11-16T11:28:28.495Z,99356.13
2022-11-16T11:31:09.282Z,99371.09
2022-11-16T11:33:44.068Z,99357.50
2022-11-16T11:36:20.020Z,99364.53
2022-11-16T11:39:11.545Z,99374.50
2022-11-16T11:41:46.320Z,99343.28
2022-11-16T11:44:12.600Z,99379.69
2022-11-16T11:49:35.793Z,99323.41
2022-11-16T11:52:17.088Z,99375.47
2022-11-16T11:54:48.530Z,99369.25
2022-11-16T11:57:22.195Z,99336.59
2022-11-16T11:59:52.264Z,99302.69
2022-11-16T12:02:36.801Z,99368.47
2022-11-16T12:05:21.962Z,99370.97
2022-11-16T12:07:59.206Z,99338.53
2022-11-16T12:10:44.286Z,99356.47
2022-11-16T12:13:20.047Z,99346.34
2022-11-16T12:16:04.746Z,99354.72
2022-11-16T12:18:40.048Z,99361.34
2022-11-16T12:21:28.364Z,99359.03
2022-11-16T12:24:22.519Z,99323.22
2022-11-16T12:26:55.176Z,99340.84
2022-11-16T12:29:37.089Z,99347.13
2022-11-16T12:32:27.921Z,99306.47
2022-11-16T12:35:31.902Z,99316.84
2022-11-16T12:38:10.569Z,99331.34
2022-11-16T12:41:05.055Z,99316.47
2022-11-16T12:43:49.442Z,99319.59
2022-11-16T12:46:15.728Z,99316.59
2022-11-16T12:49:27.233Z,99315.50
2022-11-16T12:52:32.033Z,99316.19
2022-11-16T12:55:29.816Z,99293.16
2022-11-16T12:58:27.064Z,99308.53
2022-11-16T13:01:17.212Z,99300.50
2022-11-16T13:03:54.273Z,99292.34
2022-11-16T13:06:28.689Z,99258.06
2022-11-16T13:09:02.724Z,99301.59
2022-11-16T13:11:35.526Z,99255.53
2022-11-16T13:14:07.407Z,99302.19
2022-11-16T13:16:34.431Z,99275.34
2022-11-16T13:19:03.952Z,99249.84
2022-11-16T13:21:53.421Z,99273.81
2022-11-16T13:24:45.612Z,99280.78
2022-11-16T13:27:34.312Z,99280.09
2022-11-16T13:30:14.652Z,99263.19
2022-11-16T13:32:47.131Z,99280.50
2022-11-16T13:35:16.357Z,99287.03
2022-11-16T13:37:46.508Z,99284.13
2022-11-16T13:40:30.585Z,99257.06
2022-11-16T13:43:11.963Z,99265.84
2022-11-16T13:46:00.768Z,99270.38
2022-11-16T13:48:38.431Z,99279.22
2022-11-16T13:51:08.752Z,99255.13
2022-11-16T13:56:47.539Z,99273.75
2022-11-16T13:59:16.335Z,99166.72
2022-11-16T14:02:16.310Z,99223.41
2022-11-16T14:04:55.503Z,99263.03
2022-11-16T14:07:42.699Z,99243.06
2022-11-16T14:10:11.268Z,99258.69
2022-11-16T14:12:37.528Z,99263.00
2022-11-16T14:15:19.659Z,99257.19
2022-11-16T14:18:15.252Z,99256.16
2022-11-16T14:20:58.173Z,99238.28
2022-11-16T14:23:46.525Z,99265.66
2022-11-16T14:26:18.780Z,99231.25
2022-11-16T14:28:49.353Z,99236.34
2022-11-16T14:31:29.041Z,99227.69
2022-11-16T14:33:57.819Z,99253.47
2022-11-16T14:36:43.041Z,99191.69
2022-11-16T14:39:22.979Z,99195.38
2022-11-16T14:41:49.528Z,99252.16
2022-11-16T14:44:21.852Z,99224.31
2022-11-16T14:46:48.397Z,99148.16
2022-11-16T14:49:17.809Z,99227.03
2022-11-16T14:51:47.502Z,99204.28
2022-11-16T14:54:28.324Z,99234.59
2022-11-16T14:56:56.959Z,99210.03
2022-11-16T14:59:23.762Z,99236.38
2022-11-16T15:01:52.189Z,99220.59
2022-11-16T15:04:20.262Z,99226.41
2022-11-16T15:06:55.144Z,99213.25
2022-11-16T15:09:39.119Z,99223.66
2022-11-16T15:12:31.365Z,99169.19
2022-11-16T15:15:02.943Z,99191.94
2022-11-16T15:17:33.237Z,99150.50
2022-11-16T15:20:03.950Z,99219.56
2022-11-16T15:22:39.152Z,99183.47
2022-11-16T15:25:06.133Z,99187.06
2022-11-16T15:27:38.560Z,99158.75
2022-11-16T15:30:19.487Z,99200.56
2022-11-16T15:32:48.448Z,99175.81
2022-11-16T15:35:21.825Z,99195.03
2022-11-16T15:37:48.561Z,99193.25
2022-11-16T15:40:15.130Z,99191.00
2022-11-16T15:42:43.135Z,99160.34
2022-11-16T15:45:20.871Z,99176.91
2022-11-16T15:47:48.357Z,99140.59
2022-11-16T15:50:19.224Z,99132.13
2022-11-16T15:52:54.525Z,99159.38
2022-11-16T15:55:20.939Z,99182.31
2022-11-16T15:58:00.794Z,99184.00
2022-11-16T16:00:27.903Z,99145.88
2022-11-16T16:03:02.404Z,99139.19
2022-11-16T16:05:37.769Z,99154.47
2022-11-16T16:08:05.580Z,99175.81
2022-11-16T16:10:32.618Z,99169.19
2022-11-16T16:13:00.774Z,99172.56
2022-11-16T16:15:33.963Z,99173.13
2022-11-16T16:18:01.826Z,99096.06
2022-11-16T16:20:30.919Z,99119.19
2022-11-16T16:23:15.786Z,99095.13
2022-11-16T16:25:47.467Z,99128.28
2022-11-16T16:28:16.600Z,99123.13
2022-11-16T16:30:43.032Z,99134.59
2022-11-16T16:33:18.710Z,99118.44
2022-11-16T16:35:49.478Z,99086.84
2022-11-16T16:38:15.809Z,99121.22
2022-11-16T16:40:42.133Z,99097.06
2022-11-16T16:43:08.465Z,99075.56
2022-11-16T16:45:41.767Z,99071.03
2022-11-16T16:48:14.127Z,99017.97
2022-11-16T16:50:40.559Z,99058.50
2022-11-16T16:53:10.461Z,99090.34
2022-11-16T16:55:37.645Z,99048.91
2022-11-16T16:58:04.882Z,99136.59
2022-11-16T17:00:31.355Z,99094.44
2022-11-16T17:02:58.479Z,99072.34
2022-11-16T17:05:33.836Z,99027.84
2022-11-16T17:08:01.211Z,99048.91
2022-11-16T17:10:27.808Z,99011.66
2022-11-16T17:12:57.505Z,99026.38
2022-11-16T17:15:24.783Z,99106.56
2022-11-16T17:17:51.479Z,99057.69
2022-11-16T17:20:17.851Z,99086.88
2022-11-16T17:22:44.327Z,98974.06
2022-11-16T17:25:11.024Z,98987.56
2022-11-16T17:27:37.402Z,98974.66
2022-11-16T17:30:04.504Z,99043.03
2022-11-16T17:32:30.937Z,99078.94
2022-11-16T17:34:57.268Z,99069.25
2022-11-16T17:37:23.577Z,98930.78
2022-11-16T17:39:49.916Z,98940.13
2022-11-16T17:42:16.373Z,98944.25
2022-11-16T17:44:42.733Z,98946.59
2022-11-16T17:47:09.136Z,98956.06
2022-11-16T17:49:35.569Z,98954.69
2022-11-16T17:52:02.296Z,98985.09
2022-11-16T17:54:28.653Z,98978.41
2022-11-16T17:56:55.003Z,99038.50
2022-11-16T17:59:26.443Z,99027.06
2022-11-16T18:01:55.504Z,98919.13
2022-11-16T18:04:21.870Z,99016.81
2022-11-16T18:06:48.253Z,98982.31
2022-11-16T18:09:14.717Z,99004.13
2022-11-16T18:11:41.058Z,98950.03
2022-11-16T18:14:07.474Z,98981.19
2022-11-16T18:16:34.499Z,99046.16
2022-11-16T18:19:03.161Z,99018.56
2022-11-16T18:21:30.476Z,99033.31
2022-11-16T18:23:59.031Z,98963.63
2022-11-16T18:26:25.375Z,99035.84
2022-11-16T18:28:52.918Z,99063.59
2022-11-16T18:31:21.900Z,99021.88
2022-11-16T18:33:51.847Z,98960.50
2022-11-16T18:36:19.899Z,99072.53
2022-11-16T18:38:46.630Z,99047.97
2022-11-16T18:41:12.908Z,99066.16
2022-11-16T18:43:40.969Z,98939.28
2022-11-16T18:46:07.721Z,98977.41
2022-11-16T18:48:34.341Z,99051.41
2022-11-16T18:51:04.716Z,99033.63
2022-11-16T18:53:32.592Z,98960.25
2022-11-16T18:55:59.348Z,99028.53
2022-11-16T19:01:15.746Z,99037.25
2022-11-16T19:03:42.452Z,99032.94
2022-11-16T19:06:10.536Z,98903.09
2022-11-16T19:08:38.855Z,98976.88
2022-11-16T19:11:07.241Z,99005.66
2022-11-16T19:13:34.820Z,98941.00
2022-11-16T19:16:01.599Z,99017.09
2022-11-16T19:18:28.157Z,98882.44
2022-11-16T19:21:06.206Z,99017.50
2022-11-16T19:23:44.816Z,99008.09
2022-11-16T19:26:15.467Z,99013.72
2022-11-16T19:28:43.772Z,98997.72
2022-11-16T19:31:14.035Z,98993.91
2022-11-16T19:33:41.626Z,98975.03
2022-11-16T19:36:13.528Z,98999.34
2022-11-16T19:38:40.401Z,98933.25
2022-11-16T19:41:08.232Z,98980.09
2022-11-16T19:43:35.375Z,98891.19
2022-11-16T19:46:16.337Z,98970.44
2022-11-16T19:48:43.799Z,98944.78
2022-11-16T19:51:16.335Z,98962.28
2022-11-16T19:53:43.175Z,98865.72
2022-11-16T19:56:15.301Z,98850.78
2022-11-16T19:58:42.498Z,98925.88
2022-11-16T20:01:22.941Z,98934.31
2022-11-16T20:03:49.951Z,98893.03
2022-11-16T20:06:20.350Z,98915.00
2022-11-16T20:08:49.609Z,98887.97
2022-11-16T20:11:17.473Z,98905.13
2022-11-16T20:13:44.058Z,98892.28
2022-11-16T20:16:12.409Z,98849.22
2022-11-16T20:18:39.981Z,98889.66
2022-11-16T20:21:07.696Z,98854.97
2022-11-16T20:23:35.099Z,98875.97
2022-11-16T20:26:10.254Z,98885.16
2022-11-16T20:28:38.579Z,98852.50
2022-11-16T20:31:11.413Z,98868.66
2022-11-16T20:33:38.581Z,98851.00
2022-11-16T20:36:11.804Z,98859.63
2022-11-16T20:38:39.521Z,98844.66
2022-11-16T20:41:14.371Z,98822.13
2022-11-16T20:43:42.087Z,98707.53
2022-11-16T20:46:10.451Z,98723.41
2022-11-16T20:48:37.854Z,98749.09
2022-11-16T20:51:05.849Z,98813.69
2022-11-16T20:53:32.637Z,98745.25
2022-11-16T20:55:59.374Z,98732.66
2022-11-16T20:58:26.726Z,98744.50
2022-11-16T21:00:53.166Z,98805.88
2022-11-16T21:03:19.604Z,98721.34
2022-11-16T21:05:50.210Z,98816.50
2022-11-16T21:08:16.799Z,98827.00
2022-11-16T21:10:43.875Z,98783.22
2022-11-16T21:13:31.854Z,98789.97
2022-11-16T21:16:04.192Z,98821.56
2022-11-16T21:18:31.111Z,98787.06
2022-11-16T21:21:01.933Z,98806.91
2022-11-16T21:23:29.829Z,98781.63
2022-11-16T21:26:02.345Z,98743.38
2022-11-16T21:28:29.421Z,98674.38
2022-11-16T21:30:56.574Z,98725.94
2022-11-16T21:33:23.193Z,98756.88
2022-11-16T21:35:49.633Z,98762.31
2022-11-16T21:38:16.013Z,98758.94
2022-11-16T21:40:43.975Z,98742.41
2022-11-16T21:43:10.439Z,98745.94
2022-11-16T21:45:36.860Z,98729.94
2022-11-16T21:48:03.592Z,98757.63
2022-11-16T21:50:32.144Z,98727.88
2022-11-16T21:53:00.344Z,98749.50
2022-11-16T21:55:27.103Z,98713.16
2022-11-16T21:57:53.504Z,98690.69
2022-11-16T22:00:20.284Z,98731.91
2022-11-16T22:02:46.637Z,98723.28
2022-11-16T22:05:31.747Z,98713.00
2022-11-16T22:08:04.011Z,98678.00
2022-11-16T22:10:30.493Z,98613.41
2022-11-16T22:12:56.855Z,98564.16
2022-11-16T22:15:23.319Z,98611.59
2022-11-16T22:17:49.879Z,98597.91
2022-11-16T22:20:16.672Z,98543.75
2022-11-16T22:22:43.337Z,98532.16
2022-11-16T22:25:09.940Z,98637.66
2022-11-16T22:27:58.419Z,98566.66
2022-11-16T22:30:22.834Z,98617.78
2022-11-16T22:32:49.182Z,98448.09
2022-11-16T22:35:15.779Z,98637.56
2022-11-16T22:37:42.234Z,98441.94
2022-11-16T22:40:14.917Z,98629.97
2022-11-16T22:42:43.841Z,98602.03
2022-11-16T22:45:10.513Z,98520.19
2022-11-16T22:47:37.021Z,98543.81
2022-11-16T22:50:04.002Z,98568.25
2022-11-16T22:52:30.364Z,98563.66
2022-11-16T22:54:56.722Z,98554.88
2022-11-16T22:57:23.108Z,98591.94
2022-11-16T22:59:49.458Z,98490.03
2022-11-16T23:02:15.892Z,98534.09
2022-11-16T23:04:42.247Z,98453.41
2022-11-16T23:07:08.662Z,98558.88
2022-11-16T23:09:35.043Z,98472.16
2022-11-16T23:12:20.269Z,98400.50
2022-11-16T23:15:04.814Z,98500.97
2022-11-16T23:17:31.377Z,98486.19
2022-11-16T23:20:17.762Z,98452.13
2022-11-16T23:23:02.884Z,98422.53
2022-11-16T23:25:47.551Z,98437.13
2022-11-16T23:28:14.736Z,98454.41
2022-11-16T23:30:41.567Z,98412.31
2022-11-16T23:33:09.369Z,98400.25
2022-11-16T23:35:35.930Z,98396.50
2022-11-16T23:38:04.218Z,98412.50
2022-11-16T23:40:33.717Z,98386.88
2022-11-16T23:43:19.087Z,98371.00
2022-11-16T23:45:45.859Z,98337.53
2022-11-16T23:48:14.640Z,98398.28
2022-11-16T23:50:41.930Z,98385.97
2022-11-16T23:53:09.549Z,98272.72
2022-11-16T23:55:38.345Z,98378.97
2022-11-16T23:58:14.215Z,98360.06
